Time;durP1;ratioP1;P1;durP2;ratioP2;P2;SDS_P1;SDS_P2;PMS_P1;PMS_P2;Temp;Humidity;BMP_temperature;BMP_pressure;BME280_temperature;BME280_humidity;BME280_pressure;Samples;Min_cycle;Max_cycle;Signal;HPM_P1;HPM_P2
2022/08/07 00:00:21;;;;;;;10.70;10.20;;;14.70;99.90;;;;;;4991727;28;20618;-73
2022/08/07 00:02:47;;;;;;;10.93;10.10;;;14.70;99.90;;;;;;4993101;28;20637;-73
2022/08/07 00:05:13;;;;;;;12.60;12.03;;;14.60;99.90;;;;;;4992182;28;20719;-73
2022/08/07 00:07:39;;;;;;;11.43;10.73;;;14.50;99.90;;;;;;4991509;28;20180;-73
2022/08/07 00:10:06;;;;;;;7.07;6.57;;;14.50;99.90;;;;;;4992126;28;20254;-72
2022/08/07 00:12:31;;;;;;;7.20;6.80;;;14.40;99.90;;;;;;4991986;28;20192;-72
2022/08/07 00:14:57;;;;;;;7.73;7.30;;;14.30;99.90;;;;;;4991604;28;20184;-75
2022/08/07 00:17:23;;;;;;;5.43;5.13;;;14.30;99.90;;;;;;4991424;28;20189;-73
2022/08/07 00:19:49;;;;;;;6.30;6.00;;;14.40;99.90;;;;;;4992179;28;20566;-73
2022/08/07 00:22:15;;;;;;;7.37;6.87;;;14.40;99.90;;;;;;4990003;28;20218;-73
2022/08/07 00:24:41;;;;;;;7.13;6.83;;;14.50;99.90;;;;;;4991795;28;20553;-73
2022/08/07 00:27:07;;;;;;;7.03;6.63;;;14.40;99.90;;;;;;4991179;28;20189;-73
2022/08/07 00:29:33;;;;;;;7.27;6.83;;;14.40;99.90;;;;;;4990537;28;20295;-73
2022/08/07 00:32:00;;;;;;;6.07;5.67;;;14.30;99.90;;;;;;4990546;28;20188;-73
2022/08/07 00:34:26;;;;;;;6.17;5.77;;;14.10;99.90;;;;;;4991793;28;20279;-73
2022/08/07 00:36:52;;;;;;;5.37;5.03;;;13.90;99.90;;;;;;4989753;28;20184;-73
2022/08/07 00:39:18;;;;;;;6.07;5.53;;;13.80;99.90;;;;;;4990520;28;20612;-73
2022/08/07 00:41:55;;;;;;;5.97;5.77;;;13.90;99.90;;;;;;4991512;28;20216;-73
2022/08/07 00:44:21;;;;;;;7.07;6.47;;;14.00;99.90;;;;;;4991790;28;20190;-73
2022/08/07 00:46:46;;;;;;;7.63;7.23;;;14.00;99.90;;;;;;4990723;28;20172;-73
2022/08/07 00:49:12;;;;;;;6.17;5.63;;;14.20;99.90;;;;;;4991393;28;20643;-72
2022/08/07 00:51:38;;;;;;;6.00;5.50;;;14.20;99.90;;;;;;4991332;28;20271;-73
2022/08/07 00:54:04;;;;;;;5.20;4.80;;;14.30;99.90;;;;;;4982964;28;20283;-73
2022/08/07 00:56:31;;;;;;;5.53;5.27;;;14.30;99.90;;;;;;5002246;28;20214;-73
2022/08/07 00:58:57;;;;;;;6.10;5.80;;;14.30;99.90;;;;;;4994466;28;20294;-73
2022/08/07 01:01:23;;;;;;;6.13;5.63;;;14.30;99.90;;;;;;4994245;28;20216;-73
2022/08/07 01:03:50;;;;;;;4.87;4.67;;;14.20;99.90;;;;;;4995012;28;20673;-73
2022/08/07 01:06:17;;;;;;;5.53;5.23;;;14.20;99.90;;;;;;4993801;28;20661;-73
2022/08/07 01:08:44;;;;;;;4.97;4.77;;;14.20;99.90;;;;;;4992900;28;20203;-73
2022/08/07 01:11:12;;;;;;;5.50;5.20;;;14.20;99.90;;;;;;4995216;28;20266;-73
2022/08/07 01:13:38;;;;;;;5.17;4.97;;;14.10;99.90;;;;;;4994652;28;20319;-73
2022/08/07 01:16:06;;;;;;;6.30;5.80;;;14.10;99.90;;;;;;4995267;28;20311;-73
2022/08/07 01:18:33;;;;;;;5.83;5.53;;;14.10;99.90;;;;;;4992680;28;20299;-73
2022/08/07 01:21:09;;;;;;;5.30;5.10;;;14.20;99.90;;;;;;4994506;28;20263;-73
2022/08/07 01:23:43;;;;;;;5.53;5.23;;;14.20;99.90;;;;;;4993308;28;20181;-73
2022/08/07 01:26:11;;;;;;;5.83;5.53;;;14.20;99.90;;;;;;4993780;28;20560;-72
2022/08/07 01:28:48;;;;;;;5.90;5.60;;;14.10;99.90;;;;;;4993512;28;20718;-74
2022/08/07 01:31:15;;;;;;;5.73;5.47;;;14.10;99.90;;;;;;4995001;28;20203;-75
2022/08/07 01:33:42;;;;;;;5.60;5.30;;;14.00;99.90;;;;;;4994505;28;20662;-74
2022/08/07 01:36:11;;;;;;;5.00;4.80;;;14.00;99.90;;;;;;4993876;28;20200;-74
2022/08/07 01:38:38;;;;;;;6.17;5.57;;;14.10;99.90;;;;;;4993415;28;20258;-74
2022/08/07 01:41:06;;;;;;;6.03;5.70;;;14.20;99.90;;;;;;4993474;28;20223;-74
2022/08/07 01:43:33;;;;;;;6.60;6.30;;;14.20;99.90;;;;;;4992960;28;20173;-74
2022/08/07 01:45:59;;;;;;;6.07;5.77;;;14.20;99.90;;;;;;4994600;28;20180;-74
2022/08/07 01:48:25;;;;;;;7.10;6.70;;;14.30;99.90;;;;;;4993590;28;20223;-75
2022/08/07 01:51:00;;;;;;;7.40;6.70;;;14.20;99.90;;;;;;4993202;28;20184;-74
2022/08/07 01:53:28;;;;;;;9.53;9.13;;;14.10;99.90;;;;;;4994143;28;20198;-74
2022/08/07 01:56:06;;;;;;;14.57;13.87;;;14.10;99.90;;;;;;4994510;28;20231;-74
2022/08/07 01:58:40;;;;;;;15.13;14.43;;;14.20;99.90;;;;;;4993342;28;20291;-75
2022/08/07 02:01:18;;;;;;;17.67;16.63;;;14.20;99.90;;;;;;4993973;28;20190;-75
2022/08/07 02:03:50;;;;;;;20.50;19.50;;;14.20;99.90;;;;;;4993876;28;20200;-74
2022/08/07 02:06:18;;;;;;;19.27;18.37;;;14.20;99.90;;;;;;4994294;28;20189;-74
2022/08/07 02:08:46;;;;;;;19.70;18.80;;;14.00;99.90;;;;;;4991915;28;20707;-75
2022/08/07 02:11:12;;;;;;;26.80;25.50;;;13.90;99.90;;;;;;4993958;28;20645;-74
2022/08/07 02:13:40;;;;;;;29.00;27.33;;;13.90;99.90;;;;;;4993707;28;20208;-74
2022/08/07 02:16:07;;;;;;;30.27;28.67;;;14.00;99.90;;;;;;4993860;28;20185;-74
2022/08/07 02:18:36;;;;;;;30.63;28.90;;;14.00;99.90;;;;;;4993190;28;20200;-74
2022/08/07 02:21:04;;;;;;;33.53;31.83;;;14.00;99.90;;;;;;4993457;28;20190;-74
2022/08/07 02:23:34;;;;;;;29.73;28.33;;;14.00;99.90;;;;;;4993060;28;20211;-74
2022/08/07 02:26:01;;;;;;;32.63;31.13;;;13.90;99.90;;;;;;4994032;28;20188;-74
2022/08/07 02:28:29;;;;;;;32.43;30.93;;;13.90;99.90;;;;;;4992496;28;20219;-73
2022/08/07 02:30:57;;;;;;;34.37;32.73;;;13.80;99.90;;;;;;4992004;28;20187;-74
2022/08/07 02:33:28;;;;;;;30.77;29.17;;;13.80;99.90;;;;;;4993342;28;20668;-74
2022/08/07 02:35:55;;;;;;;28.27;26.73;;;13.90;99.90;;;;;;4993551;28;20184;-74
2022/08/07 02:38:26;;;;;;;35.13;33.43;;;13.90;99.90;;;;;;4992344;28;20669;-73
2022/08/07 02:40:54;;;;;;;28.90;27.53;;;13.90;99.90;;;;;;4993579;28;20183;-74
2022/08/07 02:43:21;;;;;;;22.53;21.23;;;13.80;99.90;;;;;;4993725;28;20546;-74
2022/08/07 02:45:48;;;;;;;12.60;11.90;;;13.70;99.90;;;;;;4993218;28;20184;-75
2022/08/07 02:48:14;;;;;;;12.43;11.93;;;13.70;99.90;;;;;;4992727;28;20275;-74
2022/08/07 02:50:43;;;;;;;6.23;6.03;;;13.70;99.90;;;;;;4992973;28;20188;-75
2022/08/07 02:53:16;;;;;;;7.20;6.90;;;13.80;99.90;;;;;;4992232;28;20180;-74
2022/08/07 02:55:48;;;;;;;11.30;10.80;;;13.80;99.90;;;;;;4993070;28;20187;-75
2022/08/07 02:58:18;;;;;;;9.83;9.23;;;13.80;99.90;;;;;;4992418;28;20180;-75
2022/08/07 03:00:48;;;;;;;12.00;11.50;;;13.80;99.90;;;;;;4992362;28;20668;-75
2022/08/07 03:03:16;;;;;;;11.70;11.10;;;13.70;99.90;;;;;;4993066;28;20666;-74
2022/08/07 03:05:43;;;;;;;7.23;6.93;;;13.70;99.90;;;;;;4991360;28;20172;-74
2022/08/07 03:08:10;;;;;;;8.13;7.73;;;13.80;99.90;;;;;;4992322;28;20181;-74
2022/08/07 03:10:37;;;;;;;10.03;9.63;;;13.80;99.90;;;;;;4992730;28;20610;-74
2022/08/07 03:13:03;;;;;;;12.27;11.57;;;13.80;99.90;;;;;;4992860;28;20219;-74
2022/08/07 03:15:29;;;;;;;9.03;8.63;;;13.70;99.90;;;;;;4991504;28;20181;-74
2022/08/07 03:17:56;;;;;;;6.27;5.97;;;13.60;99.90;;;;;;4992046;28;20674;-74
2022/08/07 03:20:23;;;;;;;5.80;5.53;;;13.60;99.90;;;;;;4992333;28;20215;-74
2022/08/07 03:22:52;;;;;;;6.60;6.33;;;13.50;99.90;;;;;;4990969;28;20232;-74
2022/08/07 03:25:19;;;;;;;14.03;13.27;;;13.60;99.90;;;;;;4992470;28;20191;-74
2022/08/07 03:27:47;;;;;;;14.87;14.13;;;13.60;99.90;;;;;;4990599;28;20263;-74
2022/08/07 03:30:14;;;;;;;16.43;15.70;;;13.60;99.90;;;;;;4991249;28;20212;-74
2022/08/07 03:32:42;;;;;;;12.97;12.40;;;13.50;99.90;;;;;;4992642;28;20220;-74
2022/08/07 03:35:24;;;;;;;11.60;11.10;;;13.40;99.90;;;;;;4990745;28;20235;-75
2022/08/07 03:37:56;;;;;;;9.83;9.43;;;13.40;99.90;;;;;;4990405;28;20181;-74
2022/08/07 03:40:23;;;;;;;7.77;7.40;;;13.40;99.90;;;;;;4992683;28;20290;-74
2022/08/07 03:42:50;;;;;;;8.43;7.93;;;13.40;99.90;;;;;;4992382;28;20208;-74
2022/08/07 03:45:21;;;;;;;9.40;8.90;;;13.40;99.90;;;;;;4992651;28;20176;-74
2022/08/07 03:47:48;;;;;;;10.03;9.50;;;13.40;99.90;;;;;;4990524;28;20629;-74
2022/08/07 03:50:16;;;;;;;10.13;9.57;;;13.50;99.90;;;;;;4992390;28;20603;-74
2022/08/07 03:52:44;;;;;;;13.47;12.17;;;13.50;99.90;;;;;;4991106;28;20272;-74
2022/08/07 03:55:10;;;;;;;13.93;13.27;;;13.50;99.90;;;;;;4990977;28;20181;-74
2022/08/07 03:57:36;;;;;;;16.57;15.83;;;13.50;99.90;;;;;;4990254;28;20188;-74
2022/08/07 04:00:04;;;;;;;15.97;15.23;;;13.50;99.90;;;;;;4992100;28;20227;-74
2022/08/07 04:02:30;;;;;;;17.53;16.70;;;13.50;99.90;;;;;;4991595;28;20216;-74
2022/08/07 04:04:56;;;;;;;14.33;13.67;;;13.50;99.90;;;;;;4991743;28;20199;-74
2022/08/07 04:07:22;;;;;;;24.87;23.50;;;13.50;99.90;;;;;;4989928;28;20645;-74
2022/08/07 04:09:50;;;;;;;14.13;13.57;;;13.60;99.90;;;;;;4991762;28;20295;-73
2022/08/07 04:12:16;;;;;;;21.13;20.03;;;13.60;99.90;;;;;;4991758;28;20657;-74
2022/08/07 04:14:42;;;;;;;15.83;15.03;;;13.50;99.90;;;;;;4991387;28;20207;-74
2022/08/07 04:17:09;;;;;;;15.43;14.73;;;13.40;99.90;;;;;;4989570;28;20226;-74
2022/08/07 04:19:35;;;;;;;23.23;22.17;;;13.50;99.90;;;;;;4991472;28;20819;-74
2022/08/07 04:22:01;;;;;;;21.13;20.17;;;13.50;99.90;;;;;;4989850;28;20302;-74
2022/08/07 04:24:28;;;;;;;17.50;16.70;;;13.50;99.90;;;;;;4991104;28;20199;-74
2022/08/07 04:26:56;;;;;;;16.57;15.80;;;13.50;99.90;;;;;;4986073;28;20721;-74
2022/08/07 04:29:23;;;;;;;15.50;14.77;;;13.40;99.90;;;;;;4970368;28;20221;-74
2022/08/07 04:31:49;;;;;;;20.73;19.77;;;13.50;99.90;;;;;;4986626;28;20339;-74
2022/08/07 04:34:15;;;;;;;29.37;27.97;;;13.70;99.90;;;;;;4989908;28;20555;-74
2022/08/07 04:36:42;;;;;;;24.93;23.80;;;13.70;99.90;;;;;;4990193;28;20266;-74
2022/08/07 04:39:08;;;;;;;19.03;17.97;;;13.80;99.90;;;;;;4991084;28;20208;-74
2022/08/07 04:41:34;;;;;;;13.50;12.90;;;13.80;99.90;;;;;;4991778;28;20328;-74
2022/08/07 04:44:00;;;;;;;15.07;14.37;;;13.80;99.90;;;;;;4990858;28;20212;-74
2022/08/07 04:46:34;;;;;;;18.20;17.33;;;13.90;99.90;;;;;;4991200;28;20645;-74
2022/08/07 04:49:14;;;;;;;11.73;11.17;;;13.90;99.90;;;;;;4990381;28;20196;-74
2022/08/07 04:51:53;;;;;;;10.17;9.67;;;14.00;99.90;;;;;;4991209;28;20661;-75
2022/08/07 04:54:34;;;;;;;8.87;8.47;;;14.00;99.90;;;;;;4990801;28;20191;-74
2022/08/07 04:57:16;;;;;;;8.60;8.10;;;14.10;99.90;;;;;;4990815;28;20199;-75
2022/08/07 05:00:04;;;;;;;9.07;8.50;;;14.20;99.90;;;;;;4991278;28;20211;-74
2022/08/07 05:02:59;;;;;;;12.27;11.60;;;14.30;99.90;;;;;;4990986;28;20212;-74
2022/08/07 05:05:41;;;;;;;17.03;16.23;;;14.30;99.90;;;;;;4990145;28;20192;-74
2022/08/07 05:08:15;;;;;;;44.40;42.30;;;14.50;99.90;;;;;;4990541;28;20180;-74
2022/08/07 05:10:47;;;;;;;115.53;109.93;;;14.60;99.90;;;;;;4991139;28;20672;-74
2022/08/07 05:13:25;;;;;;;215.60;204.80;;;14.70;99.90;;;;;;4991354;28;20603;-73
2022/08/07 05:15:52;;;;;;;161.93;153.40;;;14.90;99.90;;;;;;4990371;28;20266;-74
2022/08/07 05:18:33;;;;;;;34.37;32.40;;;15.20;99.90;;;;;;4990517;28;20200;-74
2022/08/07 05:21:04;;;;;;;10.60;10.10;;;15.70;99.90;;;;;;4989217;28;20238;-74
2022/08/07 05:23:37;;;;;;;60.40;57.53;;;16.30;99.90;;;;;;4991316;28;20741;-75
2022/08/07 05:26:04;;;;;;;51.10;48.20;;;17.00;99.90;;;;;;4991021;28;20756;-74
2022/08/07 05:28:34;;;;;;;10.33;9.83;;;17.50;99.90;;;;;;4988986;28;20271;-74
2022/08/07 05:31:01;;;;;;;9.83;9.33;;;17.80;99.90;;;;;;4989789;28;20193;-75
2022/08/07 05:33:28;;;;;;;6.60;6.23;;;18.30;99.90;;;;;;4990993;28;20668;-75
2022/08/07 05:35:55;;;;;;;7.30;6.90;;;18.70;99.90;;;;;;4989838;28;20243;-74
2022/08/07 05:38:21;;;;;;;8.70;8.13;;;19.10;99.90;;;;;;4982350;28;20236;-75
2022/08/07 05:40:48;;;;;;;8.70;8.35;;;19.60;99.90;;;;;;4971677;28;20192;-74
2022/08/07 05:43:15;;;;;;;11.38;10.63;;;19.80;99.90;;;;;;4989683;28;20227;-73
2022/08/07 05:45:42;;;;;;;20.58;19.58;;;20.20;99.90;;;;;;5000525;28;20267;-73
2022/08/07 05:48:08;;;;;;;17.40;16.55;;;20.50;99.90;;;;;;4992296;28;20177;-75
2022/08/07 05:50:35;;;;;;;18.52;17.55;;;20.80;99.90;;;;;;4994539;28;20184;-73
2022/08/07 05:53:04;;;;;;;8.27;7.88;;;21.10;99.90;;;;;;4993771;28;20664;-73
2022/08/07 05:55:33;;;;;;;8.40;8.05;;;21.40;99.90;;;;;;4994214;28;20219;-74
2022/08/07 05:58:00;;;;;;;19.67;18.67;;;21.70;99.90;;;;;;4993234;28;20180;-73
2022/08/07 06:00:27;;;;;;;24.42;23.23;;;21.90;99.90;;;;;;4992490;28;20200;-73
2022/08/07 06:02:56;;;;;;;21.25;20.17;;;22.20;99.90;;;;;;4993721;28;20204;-73
2022/08/07 06:05:27;;;;;;;26.23;24.67;;;22.50;99.40;;;;;;4994376;28;20183;-73
2022/08/07 06:07:58;;;;;;;15.95;14.98;;;22.80;98.20;;;;;;4991166;28;20259;-73
2022/08/07 06:10:24;;;;;;;8.88;8.38;;;22.90;97.80;;;;;;4993013;28;20188;-73
2022/08/07 06:12:50;;;;;;;5.07;4.75;;;23.40;97.00;;;;;;4992696;28;20183;-73
2022/08/07 06:15:17;;;;;;;5.68;5.30;;;23.80;95.80;;;;;;4993792;28;20194;-74
2022/08/07 06:17:43;;;;;;;11.90;11.05;;;24.00;95.10;;;;;;4992699;28;20185;-73
2022/08/07 06:20:10;;;;;;;16.13;15.23;;;24.20;94.30;;;;;;4994045;28;20223;-73
2022/08/07 06:22:38;;;;;;;13.82;13.02;;;24.80;93.30;;;;;;4991255;28;20647;-73
2022/08/07 06:25:04;;;;;;;13.52;12.48;;;24.60;93.20;;;;;;4993819;28;20185;-73
2022/08/07 06:27:30;;;;;;;11.95;11.40;;;25.00;93.10;;;;;;4991767;28;20177;-73
2022/08/07 06:29:56;;;;;;;16.95;16.08;;;25.30;92.30;;;;;;4992903;28;20219;-73
2022/08/07 06:32:22;;;;;;;24.73;23.55;;;25.60;91.20;;;;;;4993587;28;20271;-73
2022/08/07 06:34:48;;;;;;;23.58;22.13;;;26.00;90.60;;;;;;4993654;28;20251;-73
2022/08/07 06:37:13;;;;;;;15.93;15.02;;;26.40;90.10;;;;;;4992207;28;20185;-72
2022/08/07 06:39:39;;;;;;;23.05;21.95;;;26.10;89.40;;;;;;4991962;28;20355;-74
2022/08/07 06:42:10;;;;;;;22.00;20.83;;;26.10;88.50;;;;;;4992198;28;20697;-73
2022/08/07 06:44:38;;;;;;;31.27;29.80;;;26.10;87.90;;;;;;4992261;28;20605;-75
2022/08/07 06:47:04;;;;;;;35.10;33.25;;;26.20;88.20;;;;;;4992996;28;20203;-73
2022/08/07 06:49:30;;;;;;;34.78;33.10;;;26.00;88.30;;;;;;4993079;28;20727;-74
2022/08/07 06:51:57;;;;;;;32.17;30.25;;;26.00;88.50;;;;;;4992547;28;20184;-73
2022/08/07 06:54:25;;;;;;;23.48;22.38;;;25.80;88.40;;;;;;4992552;28;20180;-74
2022/08/07 06:56:53;;;;;;;27.50;26.17;;;25.70;89.50;;;;;;4992382;28;20675;-73
2022/08/07 06:59:25;;;;;;;28.20;26.85;;;26.10;88.20;;;;;;4991379;28;20208;-73
2022/08/07 07:01:53;;;;;;;35.97;34.25;;;26.40;87.40;;;;;;4992921;28;20246;-73
2022/08/07 07:04:19;;;;;;;29.40;27.95;;;26.70;86.80;;;;;;4993120;28;20202;-73
2022/08/07 07:06:45;;;;;;;32.40;30.70;;;27.00;85.60;;;;;;4990635;28;20180;-75
2022/08/07 07:09:25;;;;;;;28.85;27.27;;;26.70;85.20;;;;;;4992580;28;20192;-73
2022/08/07 07:12:06;;;;;;;13.48;12.80;;;26.10;86.10;;;;;;4992912;28;20188;-73
2022/08/07 07:14:44;;;;;;;18.48;17.63;;;25.40;88.60;;;;;;4992165;28;20192;-73
2022/08/07 07:17:16;;;;;;;20.25;19.33;;;25.70;88.90;;;;;;4992006;28;20283;-74
2022/08/07 07:19:47;;;;;;;24.75;23.55;;;26.00;87.80;;;;;;4991507;28;20216;-75
2022/08/07 07:22:16;;;;;;;17.17;16.38;;;26.00;84.50;;;;;;4990919;28;20765;-74
2022/08/07 07:24:43;;;;;;;16.27;15.48;;;25.60;86.30;;;;;;4992937;28;20177;-74
2022/08/07 07:27:12;;;;;;;19.13;18.23;;;25.80;87.10;;;;;;4991740;28;20188;-74
2022/08/07 07:29:42;;;;;;;16.10;15.15;;;25.60;87.50;;;;;;4992102;28;20775;-74
2022/08/07 07:32:11;;;;;;;21.95;20.85;;;25.60;85.70;;;;;;4991539;28;20188;-74
2022/08/07 07:34:42;;;;;;;15.52;14.52;;;25.70;87.50;;;;;;4990706;28;20323;-74
2022/08/07 07:37:10;;;;;;;22.58;21.58;;;25.40;83.80;;;;;;4990822;28;20678;-75
2022/08/07 07:39:38;;;;;;;13.43;12.70;;;25.10;83.50;;;;;;4990156;28;20567;-75
2022/08/07 07:42:08;;;;;;;9.07;8.75;;;24.70;84.00;;;;;;4990743;28;20625;-74
2022/08/07 07:44:37;;;;;;;10.88;10.43;;;24.70;84.90;;;;;;4992229;28;20198;-74
2022/08/07 07:47:05;;;;;;;7.07;6.78;;;24.50;82.80;;;;;;4991862;28;20531;-74
2022/08/07 07:49:33;;;;;;;6.07;5.78;;;24.20;84.00;;;;;;4991584;28;20291;-74
2022/08/07 07:52:01;;;;;;;6.38;6.07;;;24.10;85.40;;;;;;4992210;28;20527;-73
2022/08/07 07:54:28;;;;;;;8.70;8.02;;;24.30;84.80;;;;;;4991478;28;20193;-73
2022/08/07 07:56:57;;;;;;;6.97;6.72;;;24.60;83.50;;;;;;4990907;28;20214;-74
2022/08/07 07:59:25;;;;;;;8.85;8.45;;;24.40;83.50;;;;;;4991787;28;20800;-74
2022/08/07 08:01:52;;;;;;;10.90;10.43;;;24.50;83.00;;;;;;4991729;28;20231;-74
2022/08/07 08:04:20;;;;;;;12.00;11.30;;;24.60;81.00;;;;;;4990344;28;20247;-73
2022/08/07 08:06:47;;;;;;;12.45;11.85;;;24.70;79.20;;;;;;4990318;28;20204;-74
2022/08/07 08:09:16;;;;;;;16.27;15.57;;;24.50;80.00;;;;;;4991445;28;20203;-75
2022/08/07 08:11:42;;;;;;;19.27;18.40;;;24.80;78.80;;;;;;4990098;28;20204;-75
2022/08/07 08:14:09;;;;;;;17.88;17.00;;;24.80;77.60;;;;;;4991816;28;20184;-73
2022/08/07 08:16:42;;;;;;;19.98;19.02;;;24.70;79.00;;;;;;4991632;28;20184;-74
2022/08/07 08:19:15;;;;;;;18.27;17.48;;;25.10;77.60;;;;;;4989515;28;20574;-75
2022/08/07 08:27:29;;;;;;;19.10;18.20;;;25.00;74.90;;;;;;4973341;28;20185;-78
2022/08/07 08:30:07;;;;;;;19.65;18.75;;;24.60;74.90;;;;;;4999279;28;20216;-78
2022/08/07 08:32:39;;;;;;;22.13;21.02;;;24.70;72.70;;;;;;4998181;28;20266;-79
2022/08/07 08:35:08;;;;;;;10.65;10.15;;;25.10;73.00;;;;;;4993490;28;20274;-78
2022/08/07 08:37:36;;;;;;;14.13;13.52;;;25.30;69.80;;;;;;4992942;28;20176;-78
2022/08/07 08:40:09;;;;;;;9.65;9.25;;;25.10;70.20;;;;;;5003706;28;20208;-78
2022/08/07 08:43:10;;;;;;;11.15;10.55;;;25.20;69.70;;;;;;5003262;28;20215;-79
2022/08/07 08:46:23;;;;;;;9.80;9.35;;;25.10;69.70;;;;;;4998524;28;20586;-78
2022/08/07 08:49:12;;;;;;;7.53;7.22;;;25.10;69.40;;;;;;4988153;28;20235;-79
2022/08/07 08:51:56;;;;;;;6.63;6.38;;;25.30;68.00;;;;;;5004274;28;20198;-78
2022/08/07 08:54:42;;;;;;;6.85;6.55;;;25.30;66.40;;;;;;5003860;28;20192;-79
2022/08/07 08:57:15;;;;;;;5.05;4.90;;;25.10;65.60;;;;;;4983899;28;20177;-78
2022/08/07 08:59:57;;;;;;;4.80;4.60;;;25.00;64.80;;;;;;5006182;28;20208;-78
2022/08/07 09:02:38;;;;;;;4.35;4.03;;;25.20;62.30;;;;;;5005650;28;20244;-78
2022/08/07 09:05:25;;;;;;;3.80;3.70;;;25.60;61.20;;;;;;4987642;28;20191;-78
2022/08/07 09:08:16;;;;;;;4.30;4.10;;;25.90;61.40;;;;;;5005407;28;20192;-79
2022/08/07 09:10:54;;;;;;;4.00;3.88;;;26.40;59.90;;;;;;5003288;28;20211;-78
2022/08/07 09:13:32;;;;;;;3.05;2.95;;;25.90;58.80;;;;;;5002603;28;20216;-79
2022/08/07 09:16:09;;;;;;;3.33;3.13;;;25.70;59.00;;;;;;5002941;28;20723;-79
2022/08/07 09:18:54;;;;;;;3.30;3.20;;;26.00;58.40;;;;;;5009380;28;20251;-78
2022/08/07 09:21:38;;;;;;;3.70;3.42;;;25.70;57.40;;;;;;5011082;28;20259;-79
2022/08/07 09:24:26;;;;;;;3.55;3.35;;;25.60;58.50;;;;;;5007064;28;20176;-78
2022/08/07 09:27:10;;;;;;;3.17;3.08;;;25.90;58.50;;;;;;5005542;28;20184;-79
2022/08/07 09:29:55;;;;;;;4.10;3.67;;;26.60;57.80;;;;;;5006834;28;20216;-78
2022/08/07 09:32:46;;;;;;;6.00;5.68;;;27.00;57.40;;;;;;5007219;28;20212;-79
2022/08/07 09:35:17;;;;;;;7.82;7.50;;;27.40;55.90;;;;;;5005835;28;20180;-78
2022/08/07 09:37:53;;;;;;;10.63;10.23;;;27.10;56.00;;;;;;5005657;28;20195;-78
2022/08/07 09:40:31;;;;;;;9.13;8.68;;;27.10;56.20;;;;;;5007671;28;20212;-79
2022/08/07 09:43:26;;;;;;;10.25;9.80;;;27.20;55.80;;;;;;5006194;28;20711;-78
2022/08/07 09:46:05;;;;;;;8.27;7.97;;;26.60;57.10;;;;;;4966835;28;20658;-78
2022/08/07 09:48:45;;;;;;;10.68;10.23;;;27.10;56.50;;;;;;4981678;28;20200;-78
2022/08/07 09:51:39;;;;;;;9.43;8.93;;;27.00;55.90;;;;;;4984571;28;20177;-78
2022/08/07 09:54:14;;;;;;;10.73;10.23;;;26.90;55.80;;;;;;4994167;28;20213;-78
2022/08/07 09:57:04;;;;;;;11.63;11.13;;;26.70;55.30;;;;;;5006893;28;20192;-78
2022/08/07 09:59:51;;;;;;;12.65;12.10;;;26.80;56.20;;;;;;5007667;28;20199;-78
2022/08/07 10:02:36;;;;;;;10.90;10.48;;;26.20;56.00;;;;;;5007696;28;20223;-78
2022/08/07 10:05:11;;;;;;;11.23;10.27;;;26.60;55.70;;;;;;5004810;28;20184;-79
2022/08/07 10:08:07;;;;;;;15.10;14.45;;;27.50;55.70;;;;;;5005973;28;20251;-79
2022/08/07 10:10:37;;;;;;;14.77;14.15;;;27.80;54.70;;;;;;5006166;28;20551;-79
2022/08/07 10:13:36;;;;;;;16.52;15.82;;;27.30;53.60;;;;;;5006027;28;20184;-80
2022/08/07 10:16:27;;;;;;;15.20;14.48;;;27.30;54.00;;;;;;5006634;28;20572;-80
2022/08/07 10:19:15;;;;;;;13.93;13.32;;;27.40;53.50;;;;;;5005053;28;20231;-80
2022/08/07 10:21:59;;;;;;;14.35;13.73;;;27.60;53.30;;;;;;5005338;28;20212;-81
2022/08/07 10:24:44;;;;;;;7.75;7.43;;;28.20;53.30;;;;;;5002368;28;20259;-80
2022/08/07 10:27:38;;;;;;;6.35;5.97;;;29.10;51.20;;;;;;5000424;28;20207;-78
2022/08/07 10:30:23;;;;;;;6.75;6.50;;;28.50;51.30;;;;;;4994042;28;20304;-80
2022/08/07 10:33:25;;;;;;;6.95;6.47;;;29.10;50.80;;;;;;5003596;28;20188;-78
2022/08/07 10:36:24;;;;;;;10.18;9.68;;;29.40;49.80;;;;;;4987409;28;20192;-80
2022/08/07 10:39:23;;;;;;;16.70;16.02;;;29.90;49.80;;;;;;4986993;28;20216;-79
2022/08/07 10:42:15;;;;;;;49.78;47.45;;;30.20;48.80;;;;;;4985106;28;20297;-79
2022/08/07 10:44:55;;;;;;;48.00;45.70;;;30.10;47.70;;;;;;4999624;28;20249;-80
2022/08/07 10:47:38;;;;;;;62.33;59.40;;;29.70;47.80;;;;;;5003916;28;20272;-79
2022/08/07 10:50:23;;;;;;;118.13;112.60;;;30.00;47.00;;;;;;5007388;28;20196;-79
2022/08/07 10:53:13;;;;;;;126.00;120.15;;;29.90;46.60;;;;;;5001720;28;20266;-78
2022/08/07 10:56:04;;;;;;;173.35;165.27;;;30.30;46.20;;;;;;4980054;28;20201;-78
2022/08/07 10:59:07;;;;;;;199.85;190.57;;;30.70;45.50;;;;;;4977156;28;20213;-79
2022/08/07 11:02:04;;;;;;;177.70;169.20;;;30.30;45.60;;;;;;4982603;28;20581;-79
2022/08/07 11:05:10;;;;;;;217.95;207.65;;;30.40;46.20;;;;;;4991964;28;20263;-80
2022/08/07 11:07:44;;;;;;;189.55;180.57;;;30.90;44.90;;;;;;4998077;28;20180;-79
2022/08/07 11:10:28;;;;;;;209.00;199.13;;;30.50;43.90;;;;;;5002781;28;20586;-84
2022/08/07 11:13:22;;;;;;;204.02;194.43;;;30.20;44.60;;;;;;5005928;28;20192;-87
2022/08/07 11:15:54;;;;;;;189.73;180.85;;;30.10;44.40;;;;;;4999154;28;20215;-80
2022/08/07 11:18:55;;;;;;;204.02;194.30;;;30.10;43.90;;;;;;4999640;28;20208;-78
2022/08/07 11:21:42;;;;;;;224.98;214.15;;;30.30;44.00;;;;;;4976700;28;20251;-77
2022/08/07 11:24:21;;;;;;;175.30;167.13;;;30.60;43.60;;;;;;4997436;28;20180;-77
2022/08/07 11:26:56;;;;;;;168.20;160.25;;;30.70;43.20;;;;;;4995682;28;20595;-78
2022/08/07 11:29:28;;;;;;;134.93;128.57;;;30.80;43.20;;;;;;4983675;28;20216;-83
2022/08/07 11:32:15;;;;;;;158.40;150.93;;;30.80;42.90;;;;;;4980936;28;20192;-83
2022/08/07 11:34:56;;;;;;;154.52;147.10;;;30.70;43.50;;;;;;4992734;28;20176;-80
2022/08/07 11:37:54;;;;;;;169.45;161.18;;;30.50;43.70;;;;;;4999296;28;20181;-79
2022/08/07 11:40:24;;;;;;;135.98;129.43;;;30.70;42.90;;;;;;5004605;28;20222;-80
2022/08/07 11:43:13;;;;;;;129.55;123.35;;;30.70;42.40;;;;;;5000993;28;20271;-78
2022/08/07 11:45:54;;;;;;;154.68;147.38;;;30.70;42.70;;;;;;4982760;28;20188;-77
2022/08/07 11:48:29;;;;;;;184.10;175.48;;;30.40;42.70;;;;;;4993196;28;20242;-79
2022/08/07 11:51:33;;;;;;;186.23;177.43;;;29.60;44.00;;;;;;5020046;28;20214;-79
2022/08/07 11:54:33;;;;;;;206.45;196.48;;;30.10;44.30;;;;;;5011837;28;20672;-79
2022/08/07 11:57:40;;;;;;;225.43;214.57;;;30.60;44.00;;;;;;5000489;28;20238;-80
2022/08/07 12:00:12;;;;;;;194.35;185.15;;;31.00;44.50;;;;;;5006956;28;20203;-81
2022/08/07 12:03:20;;;;;;;161.73;154.00;;;31.30;43.70;;;;;;5012574;28;20227;-80
2022/08/07 12:06:15;;;;;;;160.50;152.88;;;31.60;43.10;;;;;;4976177;28;20181;-78
2022/08/07 12:08:52;;;;;;;130.32;124.25;;;31.50;41.70;;;;;;4991609;28;20201;-79
2022/08/07 12:11:23;;;;;;;168.13;160.25;;;30.50;42.50;;;;;;5001742;28;20192;-79
2022/08/07 12:13:56;;;;;;;188.88;179.98;;;29.90;43.50;;;;;;5001679;28;20187;-81
2022/08/07 12:16:29;;;;;;;194.90;185.65;;;30.10;43.50;;;;;;5016746;28;20211;-82
2022/08/07 12:19:24;;;;;;;173.05;165.00;;;30.20;43.40;;;;;;5025157;28;20195;-78
2022/08/07 12:22:01;;;;;;;217.60;207.10;;;30.60;43.20;;;;;;5014272;28;20291;-79
2022/08/07 12:27:52;;;;;;;149.85;142.73;;;33.40;40.50;;;;;;5002783;28;20184;-79
2022/08/07 12:30:18;;;;;;;118.75;113.05;;;32.20;41.40;;;;;;5003158;28;20227;-79
2022/08/07 12:33:01;;;;;;;121.88;115.78;;;32.10;40.70;;;;;;5000426;28;20267;-78
2022/08/07 12:35:30;;;;;;;98.85;94.22;;;32.40;40.60;;;;;;4999617;28;20570;-79
2022/08/07 12:37:58;;;;;;;104.82;99.93;;;33.00;38.90;;;;;;5000843;28;20331;-78
2022/08/07 12:40:31;;;;;;;75.88;72.35;;;33.20;39.90;;;;;;5007339;28;20185;-79
2022/08/07 12:43:00;;;;;;;55.67;53.10;;;34.60;38.00;;;;;;5003666;28;20211;-79
2022/08/07 12:45:40;;;;;;;39.80;37.92;;;34.80;36.30;;;;;;4981919;28;20177;-78
2022/08/07 12:48:42;;;;;;;37.15;35.45;;;35.10;36.10;;;;;;5006450;28;20210;-79
2022/08/07 12:51:21;;;;;;;44.72;42.58;;;34.60;35.90;;;;;;4936878;28;20204;-80
2022/08/07 12:54:16;;;;;;;25.42;24.33;;;34.10;36.70;;;;;;4997491;28;20187;-78
2022/08/07 12:56:46;;;;;;;14.70;13.88;;;35.00;36.00;;;;;;5000642;28;20671;-78
2022/08/07 12:59:20;;;;;;;59.53;56.78;;;35.10;35.20;;;;;;5000246;28;20552;-81
2022/08/07 13:02:25;;;;;;;37.58;35.63;;;33.60;37.00;;;;;;5018056;28;20210;-83
2022/08/07 13:05:03;;;;;;;15.10;14.38;;;34.30;35.70;;;;;;5020506;28;20172;-81
2022/08/07 13:07:35;;;;;;;2.55;2.40;;;35.30;35.20;;;;;;5017744;28;20184;-83
2022/08/07 13:10:19;;;;;;;2.55;2.45;;;36.40;34.40;;;;;;5004777;28;20204;-81
2022/08/07 13:13:07;;;;;;;3.15;2.92;;;37.20;33.00;;;;;;5003287;28;20249;-79